sensor_id;sensor_type;location;lat;lon;timestamp;P1;durP1;ratioP1;P2;durP2;ratioP2
63906;SDS011;50075;49.484;11.238;2023-07-31T00:01:46;86.47;;;6.63;;
63906;SDS011;50075;49.484;11.238;2023-07-31T00:04:11;104.07;;;7.25;;
63906;SDS011;50075;49.484;11.238;2023-07-31T00:06:36;79.05;;;6.20;;
63906;SDS011;50075;49.484;11.238;2023-07-31T00:09:01;135.40;;;9.60;;
63906;SDS011;50075;49.484;11.238;2023-07-31T00:11:27;87.18;;;7.00;;
63906;SDS011;50075;49.484;11.238;2023-07-31T00:13:52;130.70;;;9.20;;
63906;SDS011;50075;49.484;11.238;2023-07-31T00:16:18;73.15;;;5.80;;
63906;SDS011;50075;49.484;11.238;2023-07-31T00:18:43;95.40;;;7.10;;
63906;SDS011;50075;49.484;11.238;2023-07-31T00:21:08;88.83;;;6.40;;
63906;SDS011;50075;49.484;11.238;2023-07-31T00:23:33;92.93;;;7.20;;
63906;SDS011;50075;49.484;11.238;2023-07-31T00:25:59;115.57;;;8.03;;
63906;SDS011;50075;49.484;11.238;2023-07-31T00:28:24;79.93;;;6.25;;
63906;SDS011;50075;49.484;11.238;2023-07-31T00:30:49;89.47;;;6.77;;
63906;SDS011;50075;49.484;11.238;2023-07-31T00:33:14;117.73;;;8.30;;
63906;SDS011;50075;49.484;11.238;2023-07-31T00:35:40;91.38;;;7.00;;
63906;SDS011;50075;49.484;11.238;2023-07-31T00:38:05;155.40;;;10.83;;
63906;SDS011;50075;49.484;11.238;2023-07-31T00:40:34;87.93;;;6.70;;
63906;SDS011;50075;49.484;11.238;2023-07-31T00:42:59;144.27;;;10.32;;
63906;SDS011;50075;49.484;11.238;2023-07-31T00:45:24;87.00;;;6.75;;
63906;SDS011;50075;49.484;11.238;2023-07-31T00:47:51;113.07;;;8.35;;
63906;SDS011;50075;49.484;11.238;2023-07-31T00:50:17;82.57;;;6.53;;
63906;SDS011;50075;49.484;11.238;2023-07-31T00:52:42;97.70;;;7.55;;
63906;SDS011;50075;49.484;11.238;2023-07-31T00:55:07;147.20;;;10.57;;
63906;SDS011;50075;49.484;11.238;2023-07-31T00:57:33;77.85;;;6.28;;
63906;SDS011;50075;49.484;11.238;2023-07-31T00:59:59;123.80;;;9.40;;
63906;SDS011;50075;49.484;11.238;2023-07-31T01:02:25;84.28;;;6.28;;
63906;SDS011;50075;49.484;11.238;2023-07-31T01:04:50;86.55;;;6.50;;
63906;SDS011;50075;49.484;11.238;2023-07-31T01:09:53;89.88;;;6.75;;
63906;SDS011;50075;49.484;11.238;2023-07-31T01:12:22;69.15;;;5.88;;
63906;SDS011;50075;49.484;11.238;2023-07-31T01:14:52;95.95;;;7.05;;
63906;SDS011;50075;49.484;11.238;2023-07-31T01:17:17;73.30;;;5.97;;
63906;SDS011;50075;49.484;11.238;2023-07-31T01:19:42;64.37;;;5.53;;
63906;SDS011;50075;49.484;11.238;2023-07-31T01:27:12;121.00;;;8.90;;
63906;SDS011;50075;49.484;11.238;2023-07-31T01:29:43;81.55;;;6.00;;
63906;SDS011;50075;49.484;11.238;2023-07-31T01:32:11;254.43;;;83.35;;
63906;SDS011;50075;49.484;11.238;2023-07-31T01:34:37;101.82;;;6.90;;
63906;SDS011;50075;49.484;11.238;2023-07-31T01:37:03;146.00;;;10.25;;
63906;SDS011;50075;49.484;11.238;2023-07-31T01:39:28;80.20;;;5.93;;
63906;SDS011;50075;49.484;11.238;2023-07-31T01:41:53;74.88;;;6.10;;
63906;SDS011;50075;49.484;11.238;2023-07-31T01:44:19;78.43;;;8.07;;
63906;SDS011;50075;49.484;11.238;2023-07-31T01:46:44;87.70;;;6.13;;
63906;SDS011;50075;49.484;11.238;2023-07-31T01:49:09;131.57;;;9.63;;
63906;SDS011;50075;49.484;11.238;2023-07-31T01:51:34;74.93;;;5.85;;
63906;SDS011;50075;49.484;11.238;2023-07-31T01:54:00;135.02;;;9.85;;
63906;SDS011;50075;49.484;11.238;2023-07-31T01:56:25;79.82;;;6.28;;
63906;SDS011;50075;49.484;11.238;2023-07-31T01:58:51;81.03;;;6.03;;
63906;SDS011;50075;49.484;11.238;2023-07-31T02:01:16;81.37;;;6.17;;
63906;SDS011;50075;49.484;11.238;2023-07-31T02:03:41;87.97;;;6.47;;
63906;SDS011;50075;49.484;11.238;2023-07-31T02:06:07;148.98;;;10.30;;
63906;SDS011;50075;49.484;11.238;2023-07-31T02:08:32;80.18;;;6.13;;
63906;SDS011;50075;49.484;11.238;2023-07-31T02:10:57;104.53;;;9.45;;
63906;SDS011;50075;49.484;11.238;2023-07-31T02:13:22;83.90;;;6.43;;
63906;SDS011;50075;49.484;11.238;2023-07-31T02:15:48;83.57;;;5.97;;
63906;SDS011;50075;49.484;11.238;2023-07-31T02:18:13;119.10;;;8.73;;
63906;SDS011;50075;49.484;11.238;2023-07-31T02:20:38;90.47;;;6.30;;
63906;SDS011;50075;49.484;11.238;2023-07-31T02:23:03;138.80;;;9.80;;
63906;SDS011;50075;49.484;11.238;2023-07-31T02:25:29;76.47;;;5.60;;
63906;SDS011;50075;49.484;11.238;2023-07-31T02:27:54;90.03;;;6.73;;
63906;SDS011;50075;49.484;11.238;2023-07-31T02:30:19;128.60;;;37.07;;
63906;SDS011;50075;49.484;11.238;2023-07-31T02:32:45;106.03;;;7.25;;
63906;SDS011;50075;49.484;11.238;2023-07-31T02:35:10;149.67;;;12.80;;
63906;SDS011;50075;49.484;11.238;2023-07-31T02:37:36;78.57;;;5.50;;
63906;SDS011;50075;49.484;11.238;2023-07-31T02:40:01;146.52;;;16.05;;
63906;SDS011;50075;49.484;11.238;2023-07-31T02:42:27;91.70;;;8.27;;
63906;SDS011;50075;49.484;11.238;2023-07-31T02:44:52;79.68;;;6.15;;
63906;SDS011;50075;49.484;11.238;2023-07-31T02:47:21;70.00;;;5.50;;
63906;SDS011;50075;49.484;11.238;2023-07-31T02:49:46;81.07;;;6.35;;
63906;SDS011;50075;49.484;11.238;2023-07-31T02:52:11;149.93;;;10.10;;
63906;SDS011;50075;49.484;11.238;2023-07-31T02:54:36;79.10;;;5.77;;
63906;SDS011;50075;49.484;11.238;2023-07-31T02:57:02;108.60;;;8.13;;
63906;SDS011;50075;49.484;11.238;2023-07-31T02:59:27;77.38;;;5.57;;
63906;SDS011;50075;49.484;11.238;2023-07-31T03:01:53;85.75;;;6.00;;
63906;SDS011;50075;49.484;11.238;2023-07-31T03:04:18;79.53;;;6.17;;
63906;SDS011;50075;49.484;11.238;2023-07-31T03:06:43;84.80;;;6.60;;
63906;SDS011;50075;49.484;11.238;2023-07-31T03:09:08;105.30;;;7.83;;
63906;SDS011;50075;49.484;11.238;2023-07-31T03:11:34;82.90;;;5.90;;
63906;SDS011;50075;49.484;11.238;2023-07-31T03:13:59;74.13;;;5.70;;
63906;SDS011;50075;49.484;11.238;2023-07-31T03:16:24;96.33;;;37.37;;
63906;SDS011;50075;49.484;11.238;2023-07-31T03:18:49;66.40;;;5.07;;
63906;SDS011;50075;49.484;11.238;2023-07-31T03:21:14;133.00;;;9.33;;
63906;SDS011;50075;49.484;11.238;2023-07-31T03:23:40;82.00;;;5.63;;
63906;SDS011;50075;49.484;11.238;2023-07-31T03:26:06;137.73;;;9.82;;
63906;SDS011;50075;49.484;11.238;2023-07-31T03:28:31;80.93;;;5.60;;
63906;SDS011;50075;49.484;11.238;2023-07-31T03:30:56;86.75;;;6.07;;
63906;SDS011;50075;49.484;11.238;2023-07-31T03:33:22;87.85;;;6.35;;
63906;SDS011;50075;49.484;11.238;2023-07-31T03:35:47;67.15;;;5.75;;
63906;SDS011;50075;49.484;11.238;2023-07-31T03:38:12;112.70;;;8.73;;
63906;SDS011;50075;49.484;11.238;2023-07-31T03:40:37;94.53;;;6.60;;
63906;SDS011;50075;49.484;11.238;2023-07-31T03:43:03;103.80;;;7.83;;
63906;SDS011;50075;49.484;11.238;2023-07-31T03:45:28;79.30;;;5.67;;
63906;SDS011;50075;49.484;11.238;2023-07-31T03:47:53;95.00;;;6.88;;
63906;SDS011;50075;49.484;11.238;2023-07-31T03:50:19;120.28;;;8.75;;
63906;SDS011;50075;49.484;11.238;2023-07-31T03:52:45;91.35;;;6.60;;
63906;SDS011;50075;49.484;11.238;2023-07-31T03:55:11;138.52;;;9.93;;
63906;SDS011;50075;49.484;11.238;2023-07-31T03:57:36;85.40;;;6.40;;
63906;SDS011;50075;49.484;11.238;2023-07-31T04:00:02;75.33;;;5.63;;
63906;SDS011;50075;49.484;11.238;2023-07-31T04:02:27;82.05;;;6.00;;
63906;SDS011;50075;49.484;11.238;2023-07-31T04:04:53;76.97;;;5.80;;
63906;SDS011;50075;49.484;11.238;2023-07-31T04:07:18;106.80;;;7.63;;
63906;SDS011;50075;49.484;11.238;2023-07-31T04:09:43;92.67;;;6.67;;
63906;SDS011;50075;49.484;11.238;2023-07-31T04:12:08;136.43;;;9.13;;
63906;SDS011;50075;49.484;11.238;2023-07-31T04:14:34;76.43;;;5.50;;
63906;SDS011;50075;49.484;11.238;2023-07-31T04:16:59;95.67;;;6.63;;
63906;SDS011;50075;49.484;11.238;2023-07-31T04:19:24;70.63;;;5.57;;
63906;SDS011;50075;49.484;11.238;2023-07-31T04:21:49;75.57;;;5.60;;
63906;SDS011;50075;49.484;11.238;2023-07-31T04:24:15;142.27;;;9.93;;
63906;SDS011;50075;49.484;11.238;2023-07-31T04:26:40;88.20;;;16.23;;
63906;SDS011;50075;49.484;11.238;2023-07-31T04:29:05;90.57;;;6.37;;
63906;SDS011;50075;49.484;11.238;2023-07-31T04:31:30;93.37;;;6.57;;
63906;SDS011;50075;49.484;11.238;2023-07-31T04:33:55;73.38;;;5.65;;
63906;SDS011;50075;49.484;11.238;2023-07-31T04:36:21;121.13;;;8.38;;
63906;SDS011;50075;49.484;11.238;2023-07-31T04:38:46;90.17;;;6.73;;
63906;SDS011;50075;49.484;11.238;2023-07-31T04:41:11;138.40;;;9.65;;
63906;SDS011;50075;49.484;11.238;2023-07-31T04:43:37;96.25;;;6.63;;
63906;SDS011;50075;49.484;11.238;2023-07-31T04:46:04;97.72;;;6.85;;
63906;SDS011;50075;49.484;11.238;2023-07-31T04:48:29;69.65;;;5.30;;
63906;SDS011;50075;49.484;11.238;2023-07-31T04:50:54;78.80;;;5.83;;
63906;SDS011;50075;49.484;11.238;2023-07-31T04:53:20;121.57;;;8.07;;
63906;SDS011;50075;49.484;11.238;2023-07-31T04:55:45;95.07;;;7.27;;
63906;SDS011;50075;49.484;11.238;2023-07-31T04:58:10;107.07;;;7.70;;
63906;SDS011;50075;49.484;11.238;2023-07-31T05:00:35;93.60;;;6.93;;
63906;SDS011;50075;49.484;11.238;2023-07-31T05:03:00;83.70;;;6.30;;
63906;SDS011;50075;49.484;11.238;2023-07-31T05:05:26;70.77;;;5.73;;
63906;SDS011;50075;49.484;11.238;2023-07-31T05:07:51;146.60;;;43.50;;
63906;SDS011;50075;49.484;11.238;2023-07-31T05:10:16;137.32;;;10.10;;
63906;SDS011;50075;49.484;11.238;2023-07-31T05:12:41;71.63;;;7.13;;
63906;SDS011;50075;49.484;11.238;2023-07-31T05:15:07;105.50;;;8.40;;
63906;SDS011;50075;49.484;11.238;2023-07-31T05:17:32;75.18;;;5.80;;
63906;SDS011;50075;49.484;11.238;2023-07-31T05:19:57;78.07;;;5.93;;
63906;SDS011;50075;49.484;11.238;2023-07-31T05:22:23;125.53;;;9.10;;
63906;SDS011;50075;49.484;11.238;2023-07-31T05:24:48;76.93;;;5.67;;
63906;SDS011;50075;49.484;11.238;2023-07-31T05:27:13;129.68;;;9.35;;
63906;SDS011;50075;49.484;11.238;2023-07-31T05:29:40;83.90;;;6.40;;
63906;SDS011;50075;49.484;11.238;2023-07-31T05:32:05;68.55;;;5.50;;
63906;SDS011;50075;49.484;11.238;2023-07-31T05:34:31;79.90;;;7.75;;
63906;SDS011;50075;49.484;11.238;2023-07-31T05:36:56;99.10;;;7.10;;
63906;SDS011;50075;49.484;11.238;2023-07-31T05:39:21;122.70;;;9.63;;
63906;SDS011;50075;49.484;11.238;2023-07-31T05:41:46;82.43;;;6.27;;
63906;SDS011;50075;49.484;11.238;2023-07-31T05:44:12;104.43;;;7.40;;
63906;SDS011;50075;49.484;11.238;2023-07-31T05:46:37;81.70;;;10.87;;
63906;SDS011;50075;49.484;11.238;2023-07-31T05:49:02;83.60;;;11.93;;
63906;SDS011;50075;49.484;11.238;2023-07-31T05:51:27;96.23;;;8.87;;
63906;SDS011;50075;49.484;11.238;2023-07-31T05:53:53;74.10;;;5.67;;
63906;SDS011;50075;49.484;11.238;2023-07-31T05:56:18;133.43;;;9.65;;
63906;SDS011;50075;49.484;11.238;2023-07-31T05:58:43;93.05;;;6.63;;
63906;SDS011;50075;49.484;11.238;2023-07-31T06:01:08;70.70;;;6.90;;
63906;SDS011;50075;49.484;11.238;2023-07-31T06:03:34;75.85;;;5.90;;
63906;SDS011;50075;49.484;11.238;2023-07-31T06:05:59;89.17;;;8.37;;
63906;SDS011;50075;49.484;11.238;2023-07-31T06:08:24;100.93;;;7.25;;
63906;SDS011;50075;49.484;11.238;2023-07-31T06:10:50;67.57;;;5.50;;
63906;SDS011;50075;49.484;11.238;2023-07-31T06:13:15;151.77;;;11.70;;
63906;SDS011;50075;49.484;11.238;2023-07-31T06:15:40;77.50;;;9.17;;
63906;SDS011;50075;49.484;11.238;2023-07-31T06:18:05;65.13;;;5.20;;
63906;SDS011;50075;49.484;11.238;2023-07-31T06:20:33;82.50;;;12.45;;
63906;SDS011;50075;49.484;11.238;2023-07-31T06:22:58;75.72;;;6.10;;
63906;SDS011;50075;49.484;11.238;2023-07-31T06:25:23;115.67;;;8.50;;
63906;SDS011;50075;49.484;11.238;2023-07-31T06:27:48;80.82;;;14.25;;
63906;SDS011;50075;49.484;11.238;2023-07-31T06:30:14;119.22;;;8.65;;
63906;SDS011;50075;49.484;11.238;2023-07-31T06:32:39;72.30;;;5.70;;
63906;SDS011;50075;49.484;11.238;2023-07-31T06:35:05;85.50;;;9.65;;
63906;SDS011;50075;49.484;11.238;2023-07-31T06:37:31;87.88;;;6.22;;
63906;SDS011;50075;49.484;11.238;2023-07-31T06:39:56;97.80;;;22.67;;
63906;SDS011;50075;49.484;11.238;2023-07-31T06:42:21;133.50;;;15.27;;
63906;SDS011;50075;49.484;11.238;2023-07-31T06:44:47;104.55;;;29.73;;
63906;SDS011;50075;49.484;11.238;2023-07-31T06:47:12;78.50;;;12.55;;
63906;SDS011;50075;49.484;11.238;2023-07-31T06:49:37;130.32;;;72.50;;
63906;SDS011;50075;49.484;11.238;2023-07-31T06:52:03;112.47;;;54.40;;
63906;SDS011;50075;49.484;11.238;2023-07-31T06:54:28;115.68;;;11.90;;
63906;SDS011;50075;49.484;11.238;2023-07-31T06:56:53;168.87;;;123.20;;
63906;SDS011;50075;49.484;11.238;2023-07-31T06:59:18;138.27;;;21.07;;
63906;SDS011;50075;49.484;11.238;2023-07-31T07:01:44;280.60;;;205.17;;
63906;SDS011;50075;49.484;11.238;2023-07-31T07:04:09;67.07;;;12.53;;
63906;SDS011;50075;49.484;11.238;2023-07-31T07:06:34;64.43;;;6.00;;
63906;SDS011;50075;49.484;11.238;2023-07-31T07:08:59;89.82;;;50.28;;
63906;SDS011;50075;49.484;11.238;2023-07-31T07:11:25;122.70;;;20.97;;
63906;SDS011;50075;49.484;11.238;2023-07-31T07:13:50;188.27;;;158.20;;
63906;SDS011;50075;49.484;11.238;2023-07-31T07:16:16;195.80;;;133.32;;
63906;SDS011;50075;49.484;11.238;2023-07-31T07:18:41;115.35;;;66.15;;
63906;SDS011;50075;49.484;11.238;2023-07-31T07:21:06;77.28;;;18.67;;
63906;SDS011;50075;49.484;11.238;2023-07-31T07:23:31;167.17;;;37.90;;
63906;SDS011;50075;49.484;11.238;2023-07-31T07:25:57;239.23;;;213.17;;
63906;SDS011;50075;49.484;11.238;2023-07-31T07:28:22;208.90;;;132.57;;
63906;SDS011;50075;49.484;11.238;2023-07-31T07:30:54;111.72;;;62.25;;
63906;SDS011;50075;49.484;11.238;2023-07-31T07:33:19;163.40;;;48.38;;
63906;SDS011;50075;49.484;11.238;2023-07-31T07:35:44;137.90;;;93.38;;
63906;SDS011;50075;49.484;11.238;2023-07-31T07:38:09;163.70;;;111.47;;
63906;SDS011;50075;49.484;11.238;2023-07-31T07:40:38;206.80;;;70.63;;
63906;SDS011;50075;49.484;11.238;2023-07-31T07:43:03;153.80;;;107.00;;
63906;SDS011;50075;49.484;11.238;2023-07-31T07:45:29;171.13;;;66.30;;
63906;SDS011;50075;49.484;11.238;2023-07-31T07:47:54;253.13;;;226.30;;
63906;SDS011;50075;49.484;11.238;2023-07-31T07:50:20;107.80;;;17.27;;
63906;SDS011;50075;49.484;11.238;2023-07-31T07:52:45;177.30;;;89.53;;
63906;SDS011;50075;49.484;11.238;2023-07-31T07:55:10;72.00;;;16.10;;
63906;SDS011;50075;49.484;11.238;2023-07-31T07:57:36;189.80;;;166.73;;
63906;SDS011;50075;49.484;11.238;2023-07-31T08:00:01;128.13;;;95.77;;
63906;SDS011;50075;49.484;11.238;2023-07-31T08:02:26;204.00;;;117.77;;
63906;SDS011;50075;49.484;11.238;2023-07-31T08:04:51;196.43;;;135.57;;
63906;SDS011;50075;49.484;11.238;2023-07-31T08:07:16;299.57;;;270.37;;
63906;SDS011;50075;49.484;11.238;2023-07-31T08:09:42;189.83;;;169.03;;
63906;SDS011;50075;49.484;11.238;2023-07-31T08:12:07;124.57;;;92.50;;
63906;SDS011;50075;49.484;11.238;2023-07-31T08:14:32;243.57;;;156.65;;
63906;SDS011;50075;49.484;11.238;2023-07-31T08:16:58;128.07;;;62.60;;
63906;SDS011;50075;49.484;11.238;2023-07-31T08:19:23;306.63;;;217.55;;
63906;SDS011;50075;49.484;11.238;2023-07-31T08:21:48;209.77;;;158.73;;
63906;SDS011;50075;49.484;11.238;2023-07-31T08:24:14;176.17;;;148.67;;
63906;SDS011;50075;49.484;11.238;2023-07-31T08:26:39;164.38;;;111.05;;
63906;SDS011;50075;49.484;11.238;2023-07-31T08:29:04;133.63;;;110.05;;
63906;SDS011;50075;49.484;11.238;2023-07-31T08:31:30;307.23;;;183.70;;
63906;SDS011;50075;49.484;11.238;2023-07-31T08:33:55;271.10;;;168.33;;
63906;SDS011;50075;49.484;11.238;2023-07-31T08:36:20;383.80;;;197.60;;
63906;SDS011;50075;49.484;11.238;2023-07-31T08:38:46;166.87;;;89.83;;
63906;SDS011;50075;49.484;11.238;2023-07-31T08:41:11;197.85;;;91.25;;
63906;SDS011;50075;49.484;11.238;2023-07-31T08:43:38;389.70;;;205.63;;
63906;SDS011;50075;49.484;11.238;2023-07-31T08:46:03;203.20;;;157.52;;
63906;SDS011;50075;49.484;11.238;2023-07-31T08:48:29;320.13;;;153.10;;
63906;SDS011;50075;49.484;11.238;2023-07-31T08:50:56;165.77;;;113.55;;
63906;SDS011;50075;49.484;11.238;2023-07-31T08:53:21;131.27;;;99.93;;
63906;SDS011;50075;49.484;11.238;2023-07-31T08:55:47;215.68;;;149.40;;
63906;SDS011;50075;49.484;11.238;2023-07-31T08:58:13;177.32;;;99.72;;
63906;SDS011;50075;49.484;11.238;2023-07-31T09:00:39;143.10;;;90.80;;
63906;SDS011;50075;49.484;11.238;2023-07-31T09:03:09;210.35;;;142.73;;
63906;SDS011;50075;49.484;11.238;2023-07-31T09:05:35;251.80;;;204.43;;
63906;SDS011;50075;49.484;11.238;2023-07-31T09:08:01;285.52;;;85.10;;
63906;SDS011;50075;49.484;11.238;2023-07-31T09:10:28;224.18;;;90.47;;
63906;SDS011;50075;49.484;11.238;2023-07-31T09:12:53;318.98;;;64.82;;
63906;SDS011;50075;49.484;11.238;2023-07-31T09:15:19;279.88;;;222.82;;
63906;SDS011;50075;49.484;11.238;2023-07-31T09:17:44;130.88;;;97.32;;
63906;SDS011;50075;49.484;11.238;2023-07-31T09:20:17;302.20;;;159.03;;
63906;SDS011;50075;49.484;11.238;2023-07-31T09:22:42;182.23;;;119.03;;
63906;SDS011;50075;49.484;11.238;2023-07-31T09:27:46;219.02;;;169.75;;
63906;SDS011;50075;49.484;11.238;2023-07-31T09:30:12;262.83;;;212.32;;
63906;SDS011;50075;49.484;11.238;2023-07-31T09:32:37;404.53;;;165.20;;
63906;SDS011;50075;49.484;11.238;2023-07-31T09:35:12;339.10;;;101.75;;
63906;SDS011;50075;49.484;11.238;2023-07-31T09:37:38;245.07;;;147.68;;
63906;SDS011;50075;49.484;11.238;2023-07-31T09:40:03;164.63;;;135.37;;
63906;SDS011;50075;49.484;11.238;2023-07-31T09:42:29;126.75;;;57.90;;
63906;SDS011;50075;49.484;11.238;2023-07-31T09:44:56;261.38;;;136.20;;
63906;SDS011;50075;49.484;11.238;2023-07-31T09:47:31;173.30;;;112.68;;
63906;SDS011;50075;49.484;11.238;2023-07-31T09:49:56;250.70;;;212.10;;
63906;SDS011;50075;49.484;11.238;2023-07-31T09:52:22;201.67;;;112.97;;
63906;SDS011;50075;49.484;11.238;2023-07-31T09:54:47;112.00;;;77.33;;
63906;SDS011;50075;49.484;11.238;2023-07-31T09:57:12;220.13;;;145.00;;
63906;SDS011;50075;49.484;11.238;2023-07-31T09:59:38;240.80;;;186.55;;
63906;SDS011;50075;49.484;11.238;2023-07-31T10:02:04;266.17;;;169.13;;
63906;SDS011;50075;49.484;11.238;2023-07-31T10:04:32;161.23;;;83.93;;
63906;SDS011;50075;49.484;11.238;2023-07-31T10:06:57;208.40;;;133.65;;
63906;SDS011;50075;49.484;11.238;2023-07-31T10:09:23;432.98;;;72.95;;
63906;SDS011;50075;49.484;11.238;2023-07-31T10:11:55;254.85;;;98.40;;
63906;SDS011;50075;49.484;11.238;2023-07-31T10:14:21;253.55;;;215.93;;
63906;SDS011;50075;49.484;11.238;2023-07-31T10:16:47;349.38;;;271.77;;
63906;SDS011;50075;49.484;11.238;2023-07-31T10:19:12;123.22;;;47.53;;
63906;SDS011;50075;49.484;11.238;2023-07-31T10:21:37;340.70;;;173.80;;
63906;SDS011;50075;49.484;11.238;2023-07-31T10:24:06;180.52;;;118.13;;
63906;SDS011;50075;49.484;11.238;2023-07-31T10:26:32;294.92;;;92.70;;
63906;SDS011;50075;49.484;11.238;2023-07-31T10:29:00;254.07;;;162.75;;
63906;SDS011;50075;49.484;11.238;2023-07-31T10:31:26;141.77;;;94.68;;
63906;SDS011;50075;49.484;11.238;2023-07-31T10:33:52;167.15;;;113.03;;
63906;SDS011;50075;49.484;11.238;2023-07-31T10:36:18;176.63;;;74.43;;
63906;SDS011;50075;49.484;11.238;2023-07-31T10:38:44;251.23;;;113.68;;
63906;SDS011;50075;49.484;11.238;2023-07-31T10:41:09;240.15;;;165.57;;
63906;SDS011;50075;49.484;11.238;2023-07-31T10:43:35;344.10;;;199.88;;
63906;SDS011;50075;49.484;11.238;2023-07-31T10:46:05;196.23;;;155.48;;
63906;SDS011;50075;49.484;11.238;2023-07-31T10:48:32;178.82;;;115.10;;
63906;SDS011;50075;49.484;11.238;2023-07-31T10:50:58;235.80;;;92.22;;
63906;SDS011;50075;49.484;11.238;2023-07-31T10:53:28;139.70;;;58.42;;
63906;SDS011;50075;49.484;11.238;2023-07-31T10:55:56;173.05;;;105.90;;
63906;SDS011;50075;49.484;11.238;2023-07-31T10:58:22;159.35;;;95.50;;
63906;SDS011;50075;49.484;11.238;2023-07-31T11:00:47;378.47;;;117.63;;
63906;SDS011;50075;49.484;11.238;2023-07-31T11:05:41;326.83;;;224.03;;
63906;SDS011;50075;49.484;11.238;2023-07-31T11:08:26;376.50;;;207.15;;
63906;SDS011;50075;49.484;11.238;2023-07-31T11:15:54;249.60;;;210.17;;
63906;SDS011;50075;49.484;11.238;2023-07-31T11:18:19;191.32;;;149.90;;
63906;SDS011;50075;49.484;11.238;2023-07-31T11:20:44;249.85;;;105.57;;
63906;SDS011;50075;49.484;11.238;2023-07-31T11:23:10;190.77;;;149.13;;
63906;SDS011;50075;49.484;11.238;2023-07-31T11:25:35;252.77;;;125.95;;
63906;SDS011;50075;49.484;11.238;2023-07-31T11:30:29;126.70;;;75.90;;
63906;SDS011;50075;49.484;11.238;2023-07-31T11:32:55;322.45;;;225.75;;
63906;SDS011;50075;49.484;11.238;2023-07-31T11:35:20;258.48;;;119.60;;
63906;SDS011;50075;49.484;11.238;2023-07-31T11:37:45;315.00;;;148.00;;
63906;SDS011;50075;49.484;11.238;2023-07-31T11:40:11;217.13;;;112.47;;
63906;SDS011;50075;49.484;11.238;2023-07-31T11:42:36;203.90;;;138.60;;
63906;SDS011;50075;49.484;11.238;2023-07-31T11:45:05;151.85;;;114.43;;
63906;SDS011;50075;49.484;11.238;2023-07-31T11:47:33;193.93;;;111.75;;
63906;SDS011;50075;49.484;11.238;2023-07-31T11:50:06;191.47;;;139.60;;
63906;SDS011;50075;49.484;11.238;2023-07-31T11:52:40;238.25;;;200.73;;
63906;SDS011;50075;49.484;11.238;2023-07-31T11:57:31;202.53;;;180.77;;
63906;SDS011;50075;49.484;11.238;2023-07-31T11:59:57;127.47;;;85.68;;
63906;SDS011;50075;49.484;11.238;2023-07-31T12:02:23;242.63;;;216.00;;
63906;SDS011;50075;49.484;11.238;2023-07-31T12:04:48;192.05;;;102.15;;
63906;SDS011;50075;49.484;11.238;2023-07-31T12:07:13;144.75;;;104.00;;
63906;SDS011;50075;49.484;11.238;2023-07-31T12:09:49;236.52;;;154.63;;
63906;SDS011;50075;49.484;11.238;2023-07-31T12:12:18;252.43;;;192.27;;
63906;SDS011;50075;49.484;11.238;2023-07-31T12:14:44;186.52;;;108.43;;
63906;SDS011;50075;49.484;11.238;2023-07-31T12:17:09;245.07;;;220.20;;
63906;SDS011;50075;49.484;11.238;2023-07-31T12:19:34;279.77;;;237.97;;
63906;SDS011;50075;49.484;11.238;2023-07-31T12:22:00;320.35;;;283.38;;
63906;SDS011;50075;49.484;11.238;2023-07-31T12:24:26;196.05;;;175.35;;
63906;SDS011;50075;49.484;11.238;2023-07-31T12:26:51;229.93;;;152.68;;
63906;SDS011;50075;49.484;11.238;2023-07-31T12:29:17;234.23;;;190.30;;
63906;SDS011;50075;49.484;11.238;2023-07-31T12:31:42;298.40;;;236.85;;
63906;SDS011;50075;49.484;11.238;2023-07-31T12:34:15;207.57;;;166.07;;
63906;SDS011;50075;49.484;11.238;2023-07-31T12:36:40;182.32;;;131.77;;
63906;SDS011;50075;49.484;11.238;2023-07-31T12:39:07;165.85;;;114.47;;
63906;SDS011;50075;49.484;11.238;2023-07-31T12:41:33;143.13;;;104.93;;
63906;SDS011;50075;49.484;11.238;2023-07-31T12:43:59;303.30;;;189.65;;
63906;SDS011;50075;49.484;11.238;2023-07-31T12:46:24;209.73;;;164.45;;
63906;SDS011;50075;49.484;11.238;2023-07-31T12:48:49;189.27;;;92.97;;
63906;SDS011;50075;49.484;11.238;2023-07-31T12:51:15;172.83;;;133.47;;
63906;SDS011;50075;49.484;11.238;2023-07-31T12:53:40;257.98;;;124.25;;
63906;SDS011;50075;49.484;11.238;2023-07-31T12:56:05;271.40;;;137.63;;
63906;SDS011;50075;49.484;11.238;2023-07-31T12:58:31;109.30;;;79.68;;
63906;SDS011;50075;49.484;11.238;2023-07-31T13:00:56;135.20;;;81.13;;
63906;SDS011;50075;49.484;11.238;2023-07-31T13:03:21;125.90;;;99.55;;
63906;SDS011;50075;49.484;11.238;2023-07-31T13:05:47;256.27;;;142.30;;
63906;SDS011;50075;49.484;11.238;2023-07-31T13:08:12;160.43;;;93.60;;
63906;SDS011;50075;49.484;11.238;2023-07-31T13:10:37;241.47;;;176.30;;
63906;SDS011;50075;49.484;11.238;2023-07-31T13:13:02;180.40;;;128.73;;
63906;SDS011;50075;49.484;11.238;2023-07-31T13:15:28;194.73;;;147.47;;
63906;SDS011;50075;49.484;11.238;2023-07-31T13:17:53;270.27;;;170.85;;
63906;SDS011;50075;49.484;11.238;2023-07-31T13:20:18;196.37;;;116.07;;
63906;SDS011;50075;49.484;11.238;2023-07-31T13:22:43;236.50;;;133.03;;
63906;SDS011;50075;49.484;11.238;2023-07-31T13:25:08;275.73;;;236.53;;
63906;SDS011;50075;49.484;11.238;2023-07-31T13:27:34;255.27;;;180.10;;
63906;SDS011;50075;49.484;11.238;2023-07-31T13:30:00;160.93;;;98.75;;
63906;SDS011;50075;49.484;11.238;2023-07-31T13:32:25;229.30;;;199.93;;
63906;SDS011;50075;49.484;11.238;2023-07-31T13:34:51;225.80;;;168.50;;
63906;SDS011;50075;49.484;11.238;2023-07-31T13:37:16;166.85;;;113.60;;
63906;SDS011;50075;49.484;11.238;2023-07-31T13:39:41;163.23;;;103.63;;
63906;SDS011;50075;49.484;11.238;2023-07-31T13:42:07;187.77;;;128.32;;
63906;SDS011;50075;49.484;11.238;2023-07-31T13:44:36;258.90;;;207.98;;
63906;SDS011;50075;49.484;11.238;2023-07-31T13:47:02;225.55;;;167.85;;
63906;SDS011;50075;49.484;11.238;2023-07-31T13:49:27;129.32;;;91.07;;
63906;SDS011;50075;49.484;11.238;2023-07-31T13:51:53;161.95;;;89.07;;
63906;SDS011;50075;49.484;11.238;2023-07-31T13:54:18;276.43;;;161.03;;
63906;SDS011;50075;49.484;11.238;2023-07-31T13:56:43;324.35;;;224.70;;
63906;SDS011;50075;49.484;11.238;2023-07-31T13:59:09;181.30;;;124.05;;
63906;SDS011;50075;49.484;11.238;2023-07-31T14:01:35;194.23;;;173.10;;
63906;SDS011;50075;49.484;11.238;2023-07-31T14:04:00;214.57;;;187.63;;
63906;SDS011;50075;49.484;11.238;2023-07-31T14:06:25;275.50;;;204.80;;
63906;SDS011;50075;49.484;11.238;2023-07-31T14:08:50;231.47;;;162.83;;
63906;SDS011;50075;49.484;11.238;2023-07-31T14:11:15;178.30;;;130.47;;
63906;SDS011;50075;49.484;11.238;2023-07-31T14:13:41;190.02;;;115.65;;
63906;SDS011;50075;49.484;11.238;2023-07-31T14:16:06;113.37;;;62.13;;